Napoleon, Missouri
Current Conditions -  °F | °C
As of 12:35 PM on Sunday 21 Dec 2014 (Local Time) from KGPH Reporting Station
Overcast Overcast  
Wind Chill: 38°   Ceiling: 1600
Heat Index: 43°   Visibility: 10mi
Dew Point: 37°   Wind: 8mph
Humidity: 81%   Direction: 170°S
Pressure: 29.92"   Gusts: NA
Location:  39.13°N, 94.07°W
Report Text: KGPH 211835Z AUTO 17007KT 10SM BKN016 OVC033 06/03 A2992 RMK AO2
Loading
Personal Weather Stations






























Interactive Weather Map New forecast layout! Learn more

10-Day Weather Forecast

Advertisements
Track Severe Weather on mobile